Hauptseite
METAR-TAF:

METAR-TAF

Flughäfen :

Pruniers

Romorantin, Frankreich

Breite: 47-19N, Länge: 001-41E, Höhe: 85 m

Beobachtung

Neuester Wetterbericht von vor 28 Minuten, um 00:30 UTC
Windstille
Temperatur 11°C
Luftfeuchtigkeit 87%
Luftdruck 997 hPa
Sichtweite: 9000 m

METAR: LFYR 230030Z AUTO 00000KT 9000 NSC 11/09 Q0997

Zeit: 02:58 (00:58 UTC)


TAF: fehlend

Wetterbeobachtungen und Prognosen von mehr als 4000 Flughäfen (METAR und TAF Bericht).

Die verfügbaren Stationen werden durch gelbe und rote Markierungen auf der Karte dargestellt.

Führen Sie die Maus auf sie, um den Namen der Station zu sehen.

Darauf klicken, um die Beobachtung von Wetterbeobachtungen und Prognosen zu sehen.

Um die Karte zu ändern : klicken Sie auf den grünen Tasten mit einem schwarzen Kreuz Zum Vergrößern, auf den grünen Button mit einem Gedankenstrich zu verkleinern, oder auf die grünen Pfeile für benachbarte Karten.


METAR-TAF: